createdAt,value
2022-10-19T00:04:34.612Z,14.60
2022-10-19T00:19:36.037Z,8.90
2022-10-19T00:34:36.147Z,6.80
2022-10-19T00:49:36.260Z,5.30
2022-10-19T01:04:36.935Z,7.10
2022-10-19T01:19:38.028Z,4.80
2022-10-19T01:34:39.150Z,4.00
2022-10-19T01:49:41.021Z,5.50
2022-10-19T02:04:42.927Z,5.10
2022-10-19T02:19:44.240Z,4.20
2022-10-19T02:34:46.125Z,5.40
2022-10-19T02:49:46.701Z,5.10
2022-10-19T03:19:49.214Z,5.40
2022-10-19T03:34:50.398Z,3.20
2022-10-19T03:49:51.023Z,7.80
2022-10-19T04:04:52.437Z,7.00
2022-10-19T04:19:54.339Z,7.60
2022-10-19T04:34:58.545Z,2.30
2022-10-19T04:50:00.370Z,6.40
2022-10-19T05:05:01.514Z,6.80
2022-10-19T05:20:03.894Z,6.10
2022-10-19T05:35:04.991Z,7.30
2022-10-19T05:50:06.361Z,3.80
2022-10-19T06:05:06.697Z,6.50
2022-10-19T06:20:06.838Z,5.70
2022-10-19T06:35:06.995Z,1.70
2022-10-19T06:50:07.123Z,4.70
2022-10-19T07:05:07.815Z,6.10
2022-10-19T07:20:08.429Z,3.50
2022-10-19T07:35:08.515Z,4.70
2022-10-19T07:50:08.596Z,6.10
2022-10-19T08:05:11.607Z,5.50
2022-10-19T08:20:13.546Z,4.30
2022-10-19T08:35:14.127Z,9.30
2022-10-19T08:50:16.043Z,2.60
2022-10-19T09:05:16.620Z,7.60
2022-10-19T09:20:18.017Z,5.20
2022-10-19T09:35:18.071Z,4.70
2022-10-19T09:50:19.964Z,3.70
2022-10-19T10:05:20.763Z,6.80
2022-10-19T10:20:21.414Z,1.70
2022-10-19T10:35:23.794Z,1.70
2022-10-19T10:50:24.324Z,2.90
2022-10-19T11:05:24.550Z,0.90
2022-10-19T11:20:24.525Z,1.90
2022-10-19T11:35:24.635Z,1.60
2022-10-19T11:50:27.054Z,4.70
2022-10-19T12:05:29.848Z,1.20
2022-10-19T12:20:29.943Z,3.40
2022-10-19T12:35:31.333Z,1.70
2022-10-19T12:50:35.030Z,4.20
2022-10-19T13:05:37.822Z,1.40
2022-10-19T13:35:40.151Z,1.30
2022-10-19T13:50:42.046Z,2.50
2022-10-19T14:05:42.067Z,1.60
2022-10-19T14:20:43.869Z,1.20
2022-10-19T14:35:43.997Z,1.80
2022-10-19T14:50:45.891Z,1.30
2022-10-19T15:05:47.309Z,4.70
2022-10-19T15:20:55.144Z,1.70
2022-10-19T15:35:54.863Z,1.30
2022-10-19T15:50:55.027Z,1.90
2022-10-19T16:05:56.410Z,3.30
2022-10-19T16:20:58.229Z,3.90
2022-10-19T16:35:57.858Z,5.00
2022-10-19T16:50:58.445Z,4.80
2022-10-19T17:05:58.087Z,6.80
2022-10-19T17:20:58.187Z,5.10
2022-10-19T17:35:58.299Z,9.90
2022-10-19T17:50:58.486Z,16.50
2022-10-19T18:05:59.020Z,14.30
2022-10-19T18:20:58.633Z,22.20
2022-10-19T18:36:00.536Z,21.00
2022-10-19T18:51:04.788Z,18.10
2022-10-19T19:06:05.536Z,18.10
2022-10-19T19:21:07.538Z,21.40
2022-10-19T19:36:08.872Z,28.50
2022-10-19T19:51:10.278Z,19.40
2022-10-19T20:06:11.805Z,21.70
2022-10-19T20:21:12.997Z,24.40
2022-10-19T20:36:13.306Z,24.00
2022-10-19T20:51:13.275Z,23.10
2022-10-19T21:06:14.321Z,20.00
2022-10-19T21:21:14.555Z,17.80
2022-10-19T21:36:14.695Z,17.60
2022-10-19T21:51:15.362Z,15.90
2022-10-19T22:06:16.749Z,15.40
2022-10-19T22:21:16.897Z,14.70
2022-10-19T22:36:18.745Z,13.80
2022-10-19T22:51:20.117Z,13.80
2022-10-19T23:06:20.290Z,14.10
2022-10-19T23:21:22.597Z,15.60
2022-10-19T23:36:23.964Z,19.20
2022-10-19T23:51:24.618Z,18.90
